Time;durP1;ratioP1;P1;durP2;ratioP2;P2;SDS_P1;SDS_P2;PMS_P1;PMS_P2;Temp;Humidity;BMP_temperature;BMP_pressure;BME280_temperature;BME280_humidity;BME280_pressure;Samples;Min_cycle;Max_cycle;Signal;HPM_P1;HPM_P2
2022/05/11 00:01:47;;;;;;;9.77;3.20;;;;;;;17.72;35.09;100731.41;5075494;28;20059;-58
2022/05/11 00:04:17;;;;;;;7.82;3.60;;;;;;;17.69;34.92;100733.25;5095051;28;20058;-59
2022/05/11 00:06:45;;;;;;;6.57;2.72;;;;;;;17.70;35.16;100729.75;5095118;28;20056;-58
2022/05/11 00:09:14;;;;;;;5.03;2.58;;;;;;;17.68;35.04;100732.41;5095061;28;20044;-58
2022/05/11 00:11:44;;;;;;;9.50;2.78;;;;;;;17.65;35.11;100728.09;5094684;28;20052;-58
2022/05/11 00:14:12;;;;;;;6.72;3.30;;;;;;;17.64;35.35;100726.38;5094486;28;20427;-58
2022/05/11 00:16:41;;;;;;;3.97;2.40;;;;;;;17.62;35.36;100720.34;5095055;28;20136;-58
2022/05/11 00:19:09;;;;;;;4.65;2.55;;;;;;;17.60;35.22;100724.78;5094874;28;20063;-58
2022/05/11 00:21:38;;;;;;;6.93;3.20;;;;;;;17.58;35.25;100713.53;5114568;28;20040;-58
2022/05/11 00:24:07;;;;;;;6.10;3.10;;;;;;;17.59;35.29;100725.72;5098116;28;20048;-56
2022/05/11 00:26:34;;;;;;;7.30;2.70;;;;;;;17.57;35.25;100719.66;5093244;28;20346;-58
2022/05/11 00:29:02;;;;;;;6.47;3.05;;;;;;;17.54;35.26;100714.53;5094582;28;20052;-58
2022/05/11 00:31:30;;;;;;;6.80;3.25;;;;;;;17.56;35.22;100717.97;5094144;28;20368;-58
2022/05/11 00:34:07;;;;;;;6.20;2.88;;;;;;;17.56;35.42;100712.72;5094245;28;20055;-58
2022/05/11 00:36:38;;;;;;;7.63;2.83;;;;;;;17.55;35.40;100713.63;5094262;28;20044;-57
2022/05/11 00:39:05;;;;;;;6.30;3.15;;;;;;;17.56;35.33;100702.25;5090704;28;20048;-58
2022/05/11 00:41:33;;;;;;;5.60;2.45;;;;;;;17.58;35.58;100689.94;5087070;28;20044;-58
2022/05/11 00:44:01;;;;;;;6.43;2.85;;;;;;;17.59;35.62;100681.16;5074208;28;20076;-57
2022/05/11 00:46:35;;;;;;;5.38;3.05;;;;;;;17.60;35.43;100690.72;5073805;28;20063;-58
2022/05/11 00:52:06;;;;;;;4.85;3.03;;;;;;;17.54;35.54;100688.34;5073911;28;20174;-57
2022/05/11 00:54:39;;;;;;;6.22;3.10;;;;;;;17.54;35.78;100675.22;5073893;28;20056;-58
2022/05/11 00:57:12;;;;;;;9.00;2.72;;;;;;;17.53;35.69;100657.81;5077771;28;20052;-58
2022/05/11 00:59:44;;;;;;;5.78;3.00;;;;;;;17.54;35.60;100659.50;5094348;28;20080;-57
2022/05/11 01:02:13;;;;;;;5.03;2.83;;;;;;;17.58;35.87;100658.47;5094004;28;20059;-58
2022/05/11 01:04:42;;;;;;;8.13;3.30;;;;;;;17.61;35.62;100658.34;5093959;28;20048;-55
2022/05/11 01:07:14;;;;;;;5.07;3.10;;;;;;;17.58;35.38;100663.72;5093955;28;20062;-58
2022/05/11 01:09:42;;;;;;;3.60;2.75;;;;;;;17.58;35.79;100663.72;5093638;28;20058;-57
2022/05/11 01:12:13;;;;;;;5.43;2.60;;;;;;;17.57;35.65;100656.78;5093886;28;20043;-58
2022/05/11 01:14:43;;;;;;;7.65;2.75;;;;;;;17.55;35.68;100650.72;5093514;28;20058;-58
2022/05/11 01:17:12;;;;;;;5.18;2.85;;;;;;;17.56;35.74;100657.69;5093625;28;20044;-57
2022/05/11 01:19:44;;;;;;;5.55;2.63;;;;;;;17.58;35.74;100653.22;5092986;28;20077;-58
2022/05/11 01:22:19;;;;;;;5.85;3.00;;;;;;;17.59;35.73;100648.84;5093282;28;20063;-56
2022/05/11 01:24:50;;;;;;;7.63;3.08;;;;;;;17.58;35.83;100645.38;5093045;28;20051;-57
2022/05/11 01:27:33;;;;;;;5.97;2.70;;;;;;;17.55;35.53;100642.88;5093807;28;20044;-58
2022/05/11 01:30:03;;;;;;;7.05;3.13;;;;;;;17.53;35.81;100641.22;5093740;28;20051;-59
2022/05/11 01:32:31;;;;;;;9.48;3.28;;;;;;;17.52;36.08;100643.00;5093481;28;20047;-58
2022/05/11 01:35:06;;;;;;;7.63;3.00;;;;;;;17.50;36.09;100639.56;5093107;28;20048;-57
2022/05/11 01:37:39;;;;;;;6.05;2.80;;;;;;;17.49;36.08;100637.88;5096678;28;20047;-58
2022/05/11 01:40:09;;;;;;;7.32;3.10;;;;;;;17.50;36.30;100636.09;5076852;28;20048;-58
2022/05/11 01:42:35;;;;;;;4.72;3.05;;;;;;;17.49;36.39;100635.25;5086699;28;20130;-57
2022/05/11 01:45:03;;;;;;;4.90;2.70;;;;;;;17.51;36.37;100651.75;5093071;28;20060;-57
2022/05/11 01:47:30;;;;;;;8.07;3.10;;;;;;;17.54;36.35;100700.59;5092084;28;20056;-58
2022/05/11 01:49:56;;;;;;;7.70;3.40;;;;;;;17.59;36.45;100689.00;5092842;28;20063;-58
2022/05/11 01:52:24;;;;;;;9.40;3.20;;;;;;;17.67;36.59;100679.13;5092933;28;20143;-58
2022/05/11 01:54:52;;;;;;;9.35;3.45;;;;;;;17.75;36.54;100685.88;5093334;28;20146;-58
2022/05/11 01:57:20;;;;;;;7.03;2.83;;;;;;;17.80;36.54;100686.53;5092842;28;20491;-57
2022/05/11 01:59:47;;;;;;;3.78;2.63;;;;;;;17.82;36.53;100679.47;5092750;28;20052;-58
2022/05/11 02:02:17;;;;;;;5.03;2.97;;;;;;;17.83;36.64;100641.84;5092989;28;20052;-56
2022/05/11 02:10:12;;;;;;;4.40;2.85;;;;;;;17.84;36.48;100627.81;5092857;28;20058;-58
2022/05/11 02:12:41;;;;;;;5.03;2.85;;;;;;;17.85;36.56;100640.00;5092872;28;20047;-58
2022/05/11 02:15:09;;;;;;;10.88;3.55;;;;;;;17.82;36.69;100640.13;5092700;28;20056;-56
2022/05/11 02:17:37;;;;;;;7.43;3.00;;;;;;;17.80;36.85;100641.97;5092892;28;20048;-56
2022/05/11 02:20:06;;;;;;;4.40;2.70;;;;;;;17.77;36.79;100636.84;5092744;28;20047;-55
2022/05/11 02:22:32;;;;;;;5.07;3.22;;;;;;;17.76;37.16;100629.91;5092920;28;20052;-58
2022/05/11 02:25:00;;;;;;;9.35;3.10;;;;;;;17.76;37.14;100629.91;5092788;28;20063;-58
2022/05/11 02:27:28;;;;;;;3.88;2.60;;;;;;;17.76;36.93;100624.66;5092718;28;20048;-58
2022/05/11 02:29:58;;;;;;;5.78;3.00;;;;;;;17.76;36.84;100615.03;5092905;28;20086;-57
2022/05/11 02:32:25;;;;;;;7.18;2.90;;;;;;;17.78;37.09;100607.09;5092372;28;20480;-57
2022/05/11 02:37:42;;;;;;;6.03;3.20;;;;;;;17.82;37.04;100604.28;5099275;28;20062;-58
2022/05/11 02:40:11;;;;;;;7.38;3.13;;;;;;;17.85;37.33;100603.31;5117125;28;20052;-58
2022/05/11 02:42:40;;;;;;;6.03;3.25;;;;;;;17.83;37.42;100597.28;5090780;28;20067;-58
2022/05/11 02:45:11;;;;;;;7.38;3.22;;;;;;;17.81;37.46;100596.47;5096687;28;20078;-57
2022/05/11 02:47:39;;;;;;;5.95;3.13;;;;;;;17.78;37.29;100591.38;5096256;28;20048;-57
2022/05/11 02:50:09;;;;;;;7.05;2.85;;;;;;;17.77;37.80;100592.28;5096171;28;20051;-57
2022/05/11 02:52:37;;;;;;;7.85;3.03;;;;;;;17.75;37.74;100586.25;5096111;28;20048;-57
2022/05/11 02:55:06;;;;;;;6.35;3.28;;;;;;;17.75;38.01;100591.50;5096158;28;20059;-58
2022/05/11 02:57:33;;;;;;;12.35;3.42;;;;;;;17.73;38.25;100588.06;5096110;28;20048;-58
2022/05/11 03:00:00;;;;;;;6.07;3.25;;;;;;;17.72;38.31;100586.38;5096071;28;20055;-58
2022/05/11 03:02:29;;;;;;;6.38;3.28;;;;;;;17.71;38.46;100589.91;5095576;28;20056;-57
2022/05/11 03:04:57;;;;;;;7.15;3.35;;;;;;;17.72;38.38;100586.38;5095362;28;20399;-58
2022/05/11 03:07:25;;;;;;;6.65;3.42;;;;;;;17.71;38.48;100592.53;5095408;28;20388;-57
2022/05/11 03:09:53;;;;;;;8.07;3.15;;;;;;;17.71;38.38;100605.63;5095426;28;20056;-58
2022/05/11 03:12:22;;;;;;;7.20;3.40;;;;;;;17.70;38.58;100598.69;5095104;28;20048;-57
2022/05/11 03:14:50;;;;;;;9.65;3.75;;;;;;;17.71;38.48;100610.88;5095381;28;20581;-58
2022/05/11 03:17:18;;;;;;;7.05;3.47;;;;;;;17.70;38.92;100617.88;5095488;28;20126;-55
2022/05/11 03:19:47;;;;;;;7.53;3.80;;;;;;;17.73;38.89;100630.88;5095445;28;20051;-58
2022/05/11 03:22:15;;;;;;;8.85;3.70;;;;;;;17.75;39.61;100633.44;5094924;28;20384;-56
2022/05/11 03:24:43;;;;;;;8.15;3.38;;;;;;;17.75;39.67;100639.53;5095383;28;20059;-58
2022/05/11 03:27:10;;;;;;;8.05;3.75;;;;;;;17.76;40.09;100645.63;5095684;28;20059;-58
2022/05/11 03:29:38;;;;;;;16.50;4.72;;;;;;;17.77;39.99;100644.72;5095396;28;20051;-58
2022/05/11 03:34:55;;;;;;;14.07;4.43;;;;;;;17.88;39.57;100639.91;5095351;28;20121;-58
2022/05/11 03:37:22;;;;;;;28.75;5.70;;;;;;;17.92;39.65;100633.59;5097434;28;20048;-57
2022/05/11 03:39:49;;;;;;;24.38;6.38;;;;;;;17.97;39.56;100636.91;5116149;28;20134;-58
2022/05/11 03:42:21;;;;;;;8.45;4.10;;;;;;;18.01;39.64;100633.22;5098510;28;20040;-58
2022/05/11 03:44:48;;;;;;;35.45;6.05;;;;;;;18.04;39.83;100635.72;5095525;28;20210;-59
2022/05/11 03:47:15;;;;;;;10.75;4.72;;;;;;;18.05;39.75;100637.44;5094753;28;20056;-54
2022/05/11 03:49:42;;;;;;;19.58;4.50;;;;;;;18.06;40.01;100633.91;5095525;28;20078;-58
2022/05/11 03:52:12;;;;;;;10.20;4.03;;;;;;;18.07;39.97;100625.13;5095114;28;20480;-57
2022/05/11 03:54:40;;;;;;;7.95;3.90;;;;;;;18.10;40.07;100630.22;5095530;28;20151;-58
2022/05/11 03:57:07;;;;;;;6.72;3.90;;;;;;;18.11;40.27;100625.84;5095641;28;20059;-58
2022/05/11 03:59:33;;;;;;;5.85;3.42;;;;;;;18.10;40.02;100617.13;5095535;28;20063;-58
2022/05/11 04:02:02;;;;;;;7.75;3.88;;;;;;;18.12;40.30;100627.53;5095507;28;20052;-58
2022/05/11 04:04:28;;;;;;;9.98;4.03;;;;;;;18.12;40.45;100632.78;5095304;28;20101;-58
2022/05/11 04:06:55;;;;;;;7.45;3.55;;;;;;;18.11;40.78;100628.47;5095088;28;20053;-58
2022/05/11 04:09:23;;;;;;;5.28;2.75;;;;;;;18.12;40.83;100630.16;5095092;28;20667;-58
2022/05/11 04:11:49;;;;;;;5.90;3.92;;;;;;;18.14;40.93;100647.56;5091994;28;20448;-58
2022/05/11 04:14:17;;;;;;;21.88;5.30;;;;;;;18.14;41.18;100634.44;5074757;28;20060;-57
2022/05/11 04:16:43;;;;;;;21.85;5.55;;;;;;;18.14;41.49;100629.19;5074861;28;20377;-58
2022/05/11 04:19:10;;;;;;;14.45;4.50;;;;;;;18.14;41.82;100626.56;5074521;28;20495;-58
2022/05/11 04:21:37;;;;;;;28.45;5.95;;;;;;;18.15;42.21;100630.91;5074496;28;20048;-57
2022/05/11 04:24:04;;;;;;;7.10;4.22;;;;;;;18.14;42.51;100615.22;5074802;28;20064;-55
2022/05/11 04:26:35;;;;;;;8.88;3.55;;;;;;;18.14;42.99;100599.47;5074632;28;20072;-57
2022/05/11 04:29:02;;;;;;;7.68;3.90;;;;;;;18.12;43.14;100596.06;5074732;28;20056;-57
2022/05/11 04:31:29;;;;;;;8.63;3.83;;;;;;;18.11;43.60;100589.13;5074785;28;20064;-58
2022/05/11 04:33:55;;;;;;;42.67;6.10;;;;;;;18.11;43.52;100589.13;5074489;28;20048;-57
2022/05/11 04:36:22;;;;;;;11.52;4.20;;;;;;;18.08;43.56;100597.97;5074486;28;20134;-56
2022/05/11 04:38:48;;;;;;;7.68;4.20;;;;;;;18.06;43.52;100602.41;5101769;28;20436;-58
2022/05/11 04:41:18;;;;;;;10.55;4.97;;;;;;;18.04;43.31;100604.25;5102518;28;20060;-57
2022/05/11 04:43:46;;;;;;;13.85;4.25;;;;;;;18.00;43.16;100610.53;5094968;28;20052;-58
2022/05/11 04:46:14;;;;;;;12.10;4.85;;;;;;;17.97;42.82;100602.81;5094035;28;20628;-57
2022/05/11 04:48:45;;;;;;;14.77;5.32;;;;;;;17.93;42.95;100606.47;5093962;28;20380;-58
2022/05/11 04:51:12;;;;;;;9.98;4.45;;;;;;;17.88;43.17;100613.66;5091680;28;20628;-58
2022/05/11 04:53:39;;;;;;;11.20;4.90;;;;;;;17.85;43.26;100609.41;5094209;28;20075;-58
2022/05/11 04:56:06;;;;;;;12.30;5.22;;;;;;;17.82;43.60;100600.81;5094216;28;20067;-58
2022/05/11 04:58:32;;;;;;;18.60;4.97;;;;;;;17.79;43.79;100593.06;5087863;28;20101;-58
2022/05/11 05:01:00;;;;;;;10.68;4.70;;;;;;;17.79;44.09;100606.19;5082269;28;20480;-58
2022/05/11 05:03:26;;;;;;;9.77;4.50;;;;;;;17.76;44.09;100614.16;5077966;28;20045;-57
2022/05/11 05:05:53;;;;;;;20.70;5.32;;;;;;;17.75;44.61;100623.81;5094079;28;20070;-57
2022/05/11 05:08:19;;;;;;;7.95;4.22;;;;;;;17.74;44.51;100621.25;5094085;28;20048;-58
2022/05/11 05:10:46;;;;;;;9.82;4.70;;;;;;;17.73;44.74;100609.91;5082207;28;20056;-58
2022/05/11 05:13:13;;;;;;;8.40;4.47;;;;;;;17.74;44.98;100608.13;5078375;28;20468;-58
2022/05/11 05:15:42;;;;;;;13.93;4.65;;;;;;;17.76;45.23;100611.53;5073631;28;20060;-60
2022/05/11 05:18:10;;;;;;;22.17;4.80;;;;;;;17.75;45.47;100612.47;5073234;28;20751;-59
2022/05/11 05:20:38;;;;;;;16.65;5.25;;;;;;;17.75;45.59;100612.47;5073095;28;20465;-59
2022/05/11 05:23:05;;;;;;;11.95;4.50;;;;;;;17.76;45.94;100616.78;5073370;28;20056;-61
2022/05/11 05:25:31;;;;;;;17.35;4.93;;;;;;;17.73;46.31;100624.78;5073184;28;20057;-61
2022/05/11 05:31:04;;;;;;;15.50;5.03;;;;;;;17.70;47.39;100624.91;5073346;28;20075;-61
2022/05/11 05:33:31;;;;;;;16.10;4.88;;;;;;;17.64;48.67;100616.28;5072304;28;20051;-60
2022/05/11 05:35:58;;;;;;;11.18;4.60;;;;;;;17.60;49.52;100598.97;5072054;28;20142;-61
2022/05/11 05:38:24;;;;;;;9.48;4.35;;;;;;;17.55;50.36;100594.84;5093603;28;20062;-61
2022/05/11 05:40:51;;;;;;;8.88;4.45;;;;;;;17.54;50.35;100603.63;5107364;28;20052;-61
2022/05/11 05:43:17;;;;;;;7.50;4.85;;;;;;;17.50;50.73;100600.25;5092829;28;20052;-61
2022/05/11 05:45:48;;;;;;;9.82;4.32;;;;;;;17.48;50.87;100591.63;5092673;28;20044;-61
2022/05/11 05:48:14;;;;;;;6.28;4.40;;;;;;;17.45;51.15;100596.13;5093096;28;20056;-61
2022/05/11 05:50:42;;;;;;;9.35;5.00;;;;;;;17.44;51.18;100608.38;5092792;28;20048;-61
2022/05/11 05:53:08;;;;;;;13.50;4.70;;;;;;;17.46;51.14;100608.31;5093157;28;20048;-61
2022/05/11 05:55:35;;;;;;;12.85;5.75;;;;;;;17.50;51.84;100609.91;5093113;28;20048;-61
2022/05/11 05:58:02;;;;;;;11.63;4.95;;;;;;;17.55;52.19;100621.06;5093022;28;20052;-61
2022/05/11 06:00:29;;;;;;;12.70;6.32;;;;;;;17.58;52.55;100619.16;5092793;28;20135;-61
2022/05/11 06:02:55;;;;;;;12.10;5.40;;;;;;;17.63;52.54;100598.00;5093074;28;20048;-61
2022/05/11 06:05:22;;;;;;;9.60;4.93;;;;;;;17.67;52.53;100610.97;5092921;28;20044;-61
2022/05/11 06:07:50;;;;;;;19.25;6.18;;;;;;;17.71;53.11;100618.75;5092619;28;20727;-60
2022/05/11 06:10:16;;;;;;;12.82;5.53;;;;;;;17.72;52.66;100608.19;5092699;28;20052;-61
2022/05/11 06:12:43;;;;;;;16.02;6.15;;;;;;;17.72;52.65;100613.44;5092606;28;20517;-61
2022/05/11 06:15:14;;;;;;;13.13;5.90;;;;;;;17.74;52.20;100608.13;5093054;28;20075;-61
2022/05/11 06:17:41;;;;;;;21.50;5.78;;;;;;;17.73;52.08;100615.16;5093203;28;20078;-61
2022/05/11 06:20:09;;;;;;;12.57;6.05;;;;;;;17.76;51.99;100608.91;5092905;28;20056;-61
2022/05/11 06:22:36;;;;;;;12.13;6.30;;;;;;;17.78;51.46;100617.56;5093106;28;20044;-61
2022/05/11 06:25:05;;;;;;;17.10;7.45;;;;;;;17.80;51.08;100621.00;5092929;28;20048;-61
2022/05/11 06:27:32;;;;;;;17.70;6.47;;;;;;;17.82;50.83;100620.03;5092684;28;20359;-61
2022/05/11 06:30:00;;;;;;;15.25;6.57;;;;;;;17.87;50.78;100625.06;5093216;28;20086;-61
2022/05/11 06:32:27;;;;;;;14.10;6.70;;;;;;;17.89;50.50;100615.38;5093209;28;20051;-61
2022/05/11 06:34:55;;;;;;;14.30;6.88;;;;;;;17.94;50.50;100610.78;5092934;28;20120;-60
2022/05/11 06:37:23;;;;;;;11.95;5.40;;;;;;;17.97;50.38;100614.16;5092918;28;20053;-61
2022/05/11 06:39:50;;;;;;;13.70;4.82;;;;;;;18.02;50.50;100616.56;5113239;28;20055;-61
2022/05/11 06:42:18;;;;;;;11.40;5.18;;;;;;;18.07;50.51;100614.63;5095296;28;20067;-61
2022/05/11 06:44:45;;;;;;;14.13;5.22;;;;;;;18.14;50.31;100621.31;5092801;28;20048;-61
2022/05/11 06:47:12;;;;;;;8.18;4.90;;;;;;;18.21;50.31;100621.94;5092211;28;20479;-61
2022/05/11 06:49:38;;;;;;;7.13;4.63;;;;;;;18.29;50.17;100631.19;5092690;28;20052;-61
2022/05/11 06:52:05;;;;;;;10.77;5.15;;;;;;;18.37;50.26;100630.88;5092362;28;20677;-61
2022/05/11 07:00:01;;;;;;;10.45;5.60;;;;;;;18.48;49.98;100625.16;5088554;28;20494;-61
2022/05/11 07:02:28;;;;;;;17.52;6.25;;;;;;;18.53;50.01;100623.19;5079972;28;20059;-61
2022/05/11 07:04:57;;;;;;;12.43;5.57;;;;;;;18.56;49.91;100628.31;5079826;28;20048;-61
2022/05/11 07:07:24;;;;;;;9.65;5.63;;;;;;;18.59;50.12;100630.81;5092709;28;20056;-61
2022/05/11 07:09:54;;;;;;;12.57;5.78;;;;;;;18.67;50.32;100636.59;5092387;28;20044;-61
2022/05/11 07:12:31;;;;;;;8.63;5.03;;;;;;;18.76;50.28;100636.25;5092426;28;20139;-61
2022/05/11 07:14:59;;;;;;;11.82;5.03;;;;;;;18.87;50.42;100638.38;5085081;28;20052;-61
2022/05/11 07:17:30;;;;;;;20.50;6.10;;;;;;;18.98;50.54;100643.16;5079890;28;20056;-61
2022/05/11 07:19:59;;;;;;;11.60;5.70;;;;;;;19.07;50.47;100640.97;5072252;28;20052;-61
2022/05/11 07:22:30;;;;;;;12.15;5.55;;;;;;;19.18;50.58;100643.13;5082461;28;20178;-61
2022/05/11 07:24:57;;;;;;;25.20;6.00;;;;;;;19.29;50.26;100643.50;5095970;28;20363;-60
2022/05/11 07:27:36;;;;;;;13.88;5.55;;;;;;;19.40;50.38;100643.84;5095704;28;20056;-61
2022/05/11 07:30:06;;;;;;;11.57;4.90;;;;;;;19.47;50.43;100649.69;5089789;28;20062;-61
2022/05/11 07:32:37;;;;;;;19.90;5.32;;;;;;;19.53;50.30;100649.44;5084278;28;20052;-61
2022/05/11 07:35:06;;;;;;;12.02;5.78;;;;;;;19.63;50.34;100652.47;5076391;28;20518;-61
2022/05/11 07:37:34;;;;;;;9.98;5.75;;;;;;;19.72;50.21;100650.25;5099032;28;20051;-61
2022/05/11 07:40:04;;;;;;;14.07;5.30;;;;;;;19.80;50.00;100652.56;5116213;28;20055;-60
2022/05/11 07:42:44;;;;;;;6.20;3.90;;;;;;;19.89;50.02;100657.38;5096240;28;20048;-61
2022/05/11 07:45:12;;;;;;;19.05;5.20;;;;;;;19.96;49.95;100650.88;5095923;28;20052;-60
2022/05/11 07:47:43;;;;;;;13.68;5.43;;;;;;;20.03;50.03;100638.28;5094986;28;20500;-61
2022/05/11 07:50:13;;;;;;;12.13;5.32;;;;;;;20.08;49.81;100645.03;5095723;28;20159;-60
2022/05/11 07:52:40;;;;;;;13.20;5.57;;;;;;;20.10;49.64;100640.53;5094189;28;20040;-60
2022/05/11 07:55:07;;;;;;;9.77;4.30;;;;;;;20.14;49.99;100631.56;5094924;28;20134;-61
2022/05/11 08:00:20;;;;;;;17.73;5.68;;;;;;;20.31;50.95;100637.78;5077443;28;20187;-61
2022/05/11 08:02:47;;;;;;;13.00;5.28;;;;;;;20.38;50.83;100633.91;5075085;28;20048;-61
2022/05/11 08:05:15;;;;;;;9.48;4.63;;;;;;;20.47;50.91;100633.47;5074850;28;20041;-61
2022/05/11 08:07:44;;;;;;;10.38;5.15;;;;;;;20.54;51.02;100645.41;5075599;28;20048;-61
2022/05/11 08:10:15;;;;;;;9.10;4.70;;;;;;;20.58;50.78;100641.69;5083178;28;20507;-62
2022/05/11 08:12:43;;;;;;;11.90;4.82;;;;;;;20.63;50.72;100650.19;5079952;28;20487;-61
2022/05/11 08:15:11;;;;;;;8.80;4.30;;;;;;;20.68;50.66;100648.16;5074570;28;20056;-62
2022/05/11 08:17:38;;;;;;;17.75;5.95;;;;;;;20.75;50.58;100653.97;5074177;28;20053;-61
2022/05/11 08:20:10;;;;;;;15.80;5.57;;;;;;;20.82;50.09;100646.63;5074542;28;20056;-61
2022/05/11 08:22:36;;;;;;;14.15;4.25;;;;;;;20.87;50.17;100652.50;5074844;28;20048;-62
2022/05/11 08:25:03;;;;;;;7.93;4.78;;;;;;;20.93;50.02;100657.47;5074457;28;20121;-61
2022/05/11 08:27:30;;;;;;;7.90;4.88;;;;;;;20.98;49.68;100655.44;5082010;28;20052;-62
2022/05/11 08:35:28;;;;;;;63.58;7.28;;;;;;;20.96;49.52;100654.66;5080968;28;20069;-60
2022/05/11 08:37:55;;;;;;;11.52;5.00;;;;;;;20.94;49.81;100653.88;5084794;28;20131;-61
2022/05/11 08:40:29;;;;;;;32.42;7.10;;;;;;;20.95;50.66;100650.31;5096326;28;20044;-61
2022/05/11 08:42:57;;;;;;;11.20;5.03;;;;;;;20.95;51.31;100650.31;5097793;28;20150;-61
2022/05/11 08:45:32;;;;;;;8.98;5.18;;;;;;;20.93;51.77;100641.66;5076235;28;20388;-61
2022/05/11 08:48:02;;;;;;;9.82;4.80;;;;;;;20.91;52.02;100648.78;5034288;28;20689;-62
2022/05/11 08:50:30;;;;;;;8.68;5.45;;;;;;;20.88;53.23;100644.53;5051352;28;20067;-62
2022/05/11 08:52:59;;;;;;;7.55;5.20;;;;;;;20.86;53.16;100645.53;5054288;28;20068;-61
2022/05/11 08:55:33;;;;;;;16.10;5.38;;;;;;;20.83;53.79;100646.56;5054043;28;20045;-62
2022/05/11 08:58:06;;;;;;;10.38;4.47;;;;;;;20.80;54.22;100642.25;5054088;28;20056;-62
2022/05/11 09:00:39;;;;;;;5.95;4.68;;;;;;;20.75;53.99;100649.56;5054173;28;20168;-62
2022/05/11 09:03:11;;;;;;;8.90;5.45;;;;;;;20.70;54.02;100643.69;5054091;28;20128;-62
2022/05/11 09:05:38;;;;;;;7.35;4.55;;;;;;;20.66;54.11;100647.41;5053998;28;20041;-62
2022/05/11 09:08:06;;;;;;;9.75;5.50;;;;;;;20.64;54.02;100646.63;5053949;28;20155;-62
2022/05/11 09:10:35;;;;;;;7.63;5.32;;;;;;;20.64;54.26;100646.63;5053866;28;20048;-62
2022/05/11 09:13:04;;;;;;;8.65;5.13;;;;;;;20.66;54.57;100649.19;5053955;28;20049;-61
2022/05/11 09:16:01;;;;;;;8.45;5.20;;;;;;;20.66;54.65;100642.13;5053684;28;20057;-62
2022/05/11 09:18:40;;;;;;;6.53;4.60;;;;;;;20.67;54.61;100651.75;5053540;28;20057;-61
2022/05/11 09:21:19;;;;;;;10.68;5.55;;;;;;;20.69;54.99;100643.75;5053748;28;20053;-61
2022/05/11 09:24:00;;;;;;;9.05;5.72;;;;;;;20.71;54.78;100645.38;5053780;28;20118;-62
2022/05/11 09:26:32;;;;;;;7.63;4.50;;;;;;;20.73;55.04;100645.31;5053453;28;20053;-61
2022/05/11 09:29:16;;;;;;;13.45;4.90;;;;;;;20.74;55.18;100639.09;5053260;28;20477;-61
2022/05/11 09:31:45;;;;;;;9.68;5.70;;;;;;;20.75;54.89;100644.28;5053624;28;20063;-60
2022/05/11 09:34:15;;;;;;;8.70;5.55;;;;;;;20.77;54.55;100639.78;5053612;28;20159;-60
2022/05/11 09:36:52;;;;;;;14.77;5.65;;;;;;;20.79;54.72;100643.19;5052926;28;20084;-62
2022/05/11 09:39:19;;;;;;;11.43;4.93;;;;;;;20.82;54.54;100638.72;5071120;28;20048;-62
2022/05/11 09:41:49;;;;;;;10.98;5.57;;;;;;;20.85;54.48;100641.19;5060081;28;20052;-61
2022/05/11 09:44:19;;;;;;;9.80;4.30;;;;;;;20.86;53.91;100645.53;5050903;28;20040;-62
2022/05/11 09:46:47;;;;;;;13.93;4.78;;;;;;;20.88;53.64;100635.78;5051009;28;20067;-61
2022/05/11 09:49:27;;;;;;;18.98;5.20;;;;;;;20.89;53.46;100635.69;5072981;28;20499;-62
2022/05/11 09:51:56;;;;;;;14.15;4.82;;;;;;;20.90;53.41;100631.28;5084350;28;20070;-62
2022/05/11 09:54:32;;;;;;;19.95;4.97;;;;;;;20.92;53.13;100634.69;5093056;28;20403;-62
2022/05/11 09:57:01;;;;;;;7.20;4.03;;;;;;;20.89;52.72;100629.56;5093487;28;20090;-62
2022/05/11 09:59:31;;;;;;;13.50;4.47;;;;;;;20.87;52.87;100631.44;5092956;28;20056;-61
2022/05/11 10:02:20;;;;;;;13.73;4.15;;;;;;;20.88;52.80;100622.59;5093232;28;20058;-62
2022/05/11 10:04:53;;;;;;;8.25;4.45;;;;;;;20.84;52.83;100621.91;5082092;28;20056;-61
2022/05/11 10:07:19;;;;;;;6.35;3.97;;;;;;;20.83;52.72;100624.63;5072776;28;20052;-62
2022/05/11 10:09:51;;;;;;;8.38;4.72;;;;;;;20.78;52.57;100616.94;5089132;28;20047;-60
2022/05/11 10:12:23;;;;;;;8.55;4.32;;;;;;;20.77;52.66;100615.22;5092567;28;20462;-61
2022/05/11 10:23:17;;;;;;;10.95;4.82;;;;;;;20.80;52.32;100613.28;5081740;28;20063;-61
2022/05/11 10:25:48;;;;;;;23.70;4.85;;;;;;;20.82;52.14;100612.38;5077458;28;20388;-61
2022/05/11 10:28:26;;;;;;;24.70;5.65;;;;;;;20.82;51.96;100617.66;5089494;28;20136;-61
2022/05/11 10:30:58;;;;;;;12.35;4.30;;;;;;;20.81;51.83;100611.53;5104517;28;20062;-61
2022/05/11 10:33:56;;;;;;;12.95;4.55;;;;;;;20.81;51.60;100619.44;5096682;28;20059;-61
2022/05/11 10:36:34;;;;;;;8.55;4.20;;;;;;;20.82;51.87;100622.94;5100370;28;20131;-62
2022/05/11 10:39:12;;;;;;;6.22;3.67;;;;;;;20.81;51.92;100616.81;5097890;28;20084;-61
2022/05/11 10:41:43;;;;;;;10.73;4.30;;;;;;;20.85;51.92;100617.50;5096189;28;20055;-61
2022/05/11 10:44:25;;;;;;;8.43;4.32;;;;;;;20.85;51.76;100618.34;5081390;28;20075;-61
2022/05/11 10:47:03;;;;;;;7.25;4.25;;;;;;;20.90;51.58;100611.03;5078475;28;20064;-61
2022/05/11 10:49:47;;;;;;;6.05;4.18;;;;;;;20.98;51.54;100618.53;5089325;28;20392;-61
2022/05/11 10:52:41;;;;;;;5.53;3.90;;;;;;;21.04;51.58;100615.56;5112342;28;20048;-61
2022/05/11 10:55:18;;;;;;;8.88;4.13;;;;;;;21.10;51.28;100617.88;5106688;28;20047;-61
2022/05/11 10:57:55;;;;;;;6.35;4.10;;;;;;;21.12;50.94;100605.47;5106785;28;20040;-61
2022/05/11 11:00:24;;;;;;;17.55;4.72;;;;;;;21.14;50.76;100614.16;5098013;28;20066;-61
2022/05/11 11:03:12;;;;;;;6.20;3.65;;;;;;;21.17;50.78;100613.97;5100505;28;20056;-60
2022/05/11 11:07:11;;;;;;;7.28;4.13;;;;;;;21.21;50.64;100604.13;5095833;28;20048;-61
2022/05/11 11:08:47;;;;;;;10.52;3.72;;;;;;;21.31;50.54;100615.88;5079777;28;20064;-61
2022/05/11 11:11:21;;;;;;;9.27;4.00;;;;;;;21.40;49.95;100605.72;5108820;28;20051;-61
2022/05/11 11:13:54;;;;;;;9.18;3.80;;;;;;;21.49;49.56;100598.22;5116991;28;20055;-61
2022/05/11 11:16:26;;;;;;;6.97;3.58;;;;;;;21.50;49.50;100599.94;5116403;28;20040;-61
2022/05/11 11:18:53;;;;;;;8.35;4.13;;;;;;;21.49;49.37;100592.94;5104357;28;20040;-61
2022/05/11 11:21:22;;;;;;;6.05;3.42;;;;;;;21.55;49.08;100597.88;5101892;28;20047;-61
2022/05/11 11:24:27;;;;;;;6.13;3.45;;;;;;;21.60;49.03;100586.13;5105312;28;20055;-62
2022/05/11 11:26:57;;;;;;;8.65;4.07;;;;;;;21.64;49.02;100597.38;5095721;28;20376;-62
2022/05/11 11:29:26;;;;;;;5.25;3.85;;;;;;;21.67;48.99;100586.63;5107830;28;20513;-62
2022/05/11 11:32:13;;;;;;;5.57;4.20;;;;;;;21.68;48.80;100588.34;5115928;28;20059;-61
2022/05/11 11:35:10;;;;;;;8.38;3.85;;;;;;;21.72;48.64;100577.53;5092329;28;20058;-62
2022/05/11 11:37:41;;;;;;;5.80;3.85;;;;;;;21.77;48.58;100571.97;5111798;28;20584;-61
2022/05/11 11:40:33;;;;;;;5.38;3.83;;;;;;;21.85;48.42;100572.41;5109473;28;20057;-61
2022/05/11 11:43:38;;;;;;;6.45;4.10;;;;;;;21.90;48.43;100561.59;5082139;28;20465;-62
2022/05/11 11:46:04;;;;;;;4.95;3.45;;;;;;;21.98;47.79;100570.78;5106045;28;20048;-62
2022/05/11 11:48:31;;;;;;;9.60;4.05;;;;;;;22.02;48.10;100555.59;5110010;28;20472;-62
2022/05/11 11:51:00;;;;;;;10.57;4.10;;;;;;;22.09;47.56;100556.13;5110127;28;20055;-62
2022/05/11 11:53:34;;;;;;;7.45;3.75;;;;;;;22.15;47.59;100545.19;5105585;28;20135;-62
2022/05/11 11:56:33;;;;;;;4.50;3.30;;;;;;;22.23;47.24;100540.31;5114000;28;20046;-62
2022/05/11 11:59:10;;;;;;;8.38;3.15;;;;;;;22.26;46.67;100540.13;5112034;28;20134;-61
2022/05/11 12:01:39;;;;;;;5.55;3.58;;;;;;;22.30;46.98;100533.72;5115287;28;20055;-61
2022/05/11 12:04:13;;;;;;;6.00;3.13;;;;;;;22.33;46.67;100529.09;5115261;28;20048;-61
2022/05/11 12:15:09;;;;;;;5.53;2.72;;;;;;;22.47;45.20;100515.09;5112647;28;20108;-61
2022/05/11 12:17:38;;;;;;;11.13;2.90;;;;;;;22.51;44.85;100511.31;5087482;28;20457;-62
2022/05/11 12:20:09;;;;;;;16.88;3.60;;;;;;;22.55;44.48;100511.97;5092174;28;20460;-61
2022/05/11 12:22:42;;;;;;;18.33;3.17;;;;;;;22.58;44.14;100509.97;5089240;28;20628;-62
2022/05/11 12:25:20;;;;;;;4.13;2.25;;;;;;;22.61;43.98;100508.94;5109205;28;20043;-61